Weather forecast for Mishelevka (Мишелевка)

Russia, 412 m
N52.890, E103.197


Sounding

Red line — air temperature ˚C.
Blue line — thermal bubble temperature ˚C.
Green line — dew point temperature ˚C.
Wind speed is in meters per second.

Table forecast

GFS 0.25˚ model

temp. wind gust humid. clouds prec. press. hpbl
Thu28 00:00 6 338.0 nnw 2 2 51 100 0.0 1018 15
03:00 5 4.0 n 7 13 70 98 0.0 1020 436
06:00 3 353.0 n 5 9 48 100 0.0 1024 599
09:00 -1 6.0 n 6 9 93 100 0.3 1027 536
12:00 -0 4.0 n 6 8 83 100 0.8 1028 579
15:00 1 351.0 n 6 7 66 100 0.8 1029 822
18:00 -0 338.0 nnw 3 5 72 100 0.1 1030 565
21:00 -2 308.0 nw 2 3 81 32 0.1 1032 41
 
Fri29 00:00 -3 309.0 nw 1 1 82 26 0.0 1033 10
03:00 -4 171.0 s 0 0 82 48 0.0 1034 10
06:00 -4 125.0 se 2 2 84 58 0.0 1034 10
09:00 -5 127.0 se 3 3 84 5 0.0 1034 38
12:00 0 128.0 se 5 8 44 0 0.0 1033 434
15:00 3 135.0 se 6 8 31 0 0.0 1031 714
18:00 2 124.0 se 4 8 43 0 0.0 1030 185
21:00 -2 112.0 ese 3 10 58 0 0.0 1031 162
 
Sat30 00:00 -3 121.0 ese 3 7 73 21 0.0 1031 124
03:00 -4 115.0 ese 2 2 77 77 0.0 1031 25
06:00 -4 117.0 ese 2 2 73 93 0.0 1030 18
09:00 -4 135.0 se 2 2 79 86 0.0 1031 38
12:00 1 132.0 se 3 5 64 5 0.0 1030 255
15:00 6 135.0 se 4 5 54 5 0.0 1027 438
18:00 3 116.0 ese 4 7 68 5 0.0 1026 134
21:00 0 114.0 ese 3 8 79 65 0.0 1026 128
 
Sun31 00:00 -1 115.0 ese 2 2 89 19 0.0 1026 35
03:00 -2 120.0 ese 2 2 91 8 0.0 1026 19
06:00 -3 127.0 se 2 2 91 74 0.0 1025 13
09:00 -3 111.0 ese 1 1 90 70 0.0 1025 10
12:00 1 317.0 nw 1 1 73 50 0.0 1025 246
15:00 3 349.0 n 2 2 63 100 0.0 1023 531
18:00 2 168.0 sse 1 1 72 100 0.0 1022 10
21:00 -1 144.0 se 3 3 84 6 0.0 1021 22
 
Mon01 00:00 -2 125.0 se 3 4 89 69 0.0 1018 71
03:00 -2 125.0 se 3 6 92 23 0.0 1015 110
06:00 -2 123.0 ese 3 9 94 5 0.0 1012 167
09:00 -2 129.0 se 3 4 93 100 0.0 1010 83
12:00 1 342.0 nnw 2 2 74 100 0.0 1010 180
15:00 4 339.0 nnw 4 8 56 100 0.0 1010 345
18:00 2 324.0 nw 3 4 72 100 0.1 1013 73
21:00 2 337.0 nnw 9 13 50 100 0.2 1018 1007
 

0.012 s